createdAt,value
2023-12-09T00:02:11.436Z,97560.78
2023-12-09T00:07:14.484Z,97561.56
2023-12-09T00:12:18.817Z,97563.44
2023-12-09T00:17:23.254Z,97567.75
2023-12-09T00:22:26.351Z,97556.41
2023-12-09T00:27:29.528Z,97560.19
2023-12-09T00:32:33.921Z,97563.03
2023-12-09T00:37:36.883Z,97551.53
2023-12-09T00:42:39.903Z,97555.75
2023-12-09T00:47:44.405Z,97551.28
2023-12-09T00:52:47.346Z,97551.28
2023-12-09T00:57:50.256Z,97547.50
2023-12-09T01:02:54.742Z,97549.72
2023-12-09T01:07:58.012Z,97552.38
2023-12-09T01:13:00.921Z,97542.22
2023-12-09T01:18:05.328Z,97542.56
2023-12-09T01:23:09.740Z,97547.44
2023-12-09T01:28:12.695Z,97545.44
2023-12-09T01:33:17.109Z,97542.47
2023-12-09T01:38:20.099Z,97532.25
2023-12-09T01:43:23.321Z,97528.00
2023-12-09T01:48:28.184Z,97527.34
2023-12-09T01:53:32.149Z,97526.03
2023-12-09T01:58:37.088Z,97529.72
2023-12-09T02:03:42.491Z,97529.38
2023-12-09T02:08:45.456Z,97527.59
2023-12-09T02:13:57.642Z,97510.31
2023-12-09T02:19:03.193Z,97520.50
2023-12-09T02:24:07.926Z,97515.63
2023-12-09T02:29:11.401Z,97503.41
2023-12-09T02:34:15.955Z,97513.00
2023-12-09T02:39:21.681Z,97504.75
2023-12-09T02:44:24.944Z,97506.75
2023-12-09T02:49:27.992Z,97508.31
2023-12-09T02:54:32.341Z,97513.41
2023-12-09T02:59:35.301Z,97515.03
2023-12-09T03:04:38.289Z,97516.31
2023-12-09T03:09:42.650Z,97512.50
2023-12-09T03:14:45.593Z,97517.59
2023-12-09T03:19:48.591Z,97523.16
2023-12-09T03:24:52.906Z,97524.63
2023-12-09T03:29:55.834Z,97533.97
2023-12-09T03:34:58.811Z,97527.66
2023-12-09T03:40:03.655Z,97533.44
2023-12-09T03:45:07.788Z,97533.22
2023-12-09T03:50:11.383Z,97540.00
2023-12-09T03:55:17.826Z,97534.31
2023-12-09T04:00:21.495Z,97536.13
2023-12-09T04:05:24.634Z,97541.88
2023-12-09T04:10:29.081Z,97544.56
2023-12-09T04:15:32.124Z,97548.44
2023-12-09T04:20:35.550Z,97546.47
2023-12-09T04:25:39.818Z,97549.13
2023-12-09T04:30:42.728Z,97562.88
2023-12-09T04:35:46.176Z,97563.84
2023-12-09T04:40:50.527Z,97563.94
2023-12-09T04:45:54.400Z,97562.41
2023-12-09T04:50:57.350Z,97570.06
2023-12-09T04:56:01.624Z,97572.28
2023-12-09T05:01:05.020Z,97581.38
2023-12-09T05:06:09.728Z,97578.47
2023-12-09T05:11:14.070Z,97589.38
2023-12-09T05:16:16.978Z,97589.13
2023-12-09T05:21:20.001Z,97591.47
2023-12-09T05:26:24.725Z,97596.25
2023-12-09T05:31:27.708Z,97593.69
2023-12-09T05:36:30.763Z,97604.53
2023-12-09T05:41:35.133Z,97598.13
2023-12-09T05:46:38.262Z,97595.56
2023-12-09T05:51:43.251Z,97597.97
2023-12-09T05:56:51.053Z,97596.66
2023-12-09T06:01:54.095Z,97594.25
2023-12-09T06:06:57.043Z,97595.47
2023-12-09T06:12:01.444Z,97599.16
2023-12-09T06:17:04.713Z,97603.13
2023-12-09T06:22:07.632Z,97600.47
2023-12-09T06:27:11.999Z,97601.03
2023-12-09T06:32:15.395Z,97593.84
2023-12-09T06:37:18.967Z,97596.25
2023-12-09T06:42:23.282Z,97595.81
2023-12-09T06:47:26.546Z,97604.03
2023-12-09T06:52:29.682Z,97605.50
2023-12-09T06:57:34.249Z,97604.56
2023-12-09T07:02:48.480Z,97614.78
2023-12-09T07:07:59.462Z,97608.69
2023-12-09T07:13:04.484Z,97604.47
2023-12-09T07:18:07.518Z,97603.16
2023-12-09T07:23:10.646Z,97608.47
2023-12-09T07:28:14.980Z,97611.25
2023-12-09T07:33:18.466Z,97611.00
2023-12-09T07:38:21.560Z,97609.78
2023-12-09T07:43:27.228Z,97593.81
2023-12-09T07:48:30.569Z,97598.66
2023-12-09T07:53:33.533Z,97605.50
2023-12-09T07:58:37.786Z,97609.72
2023-12-09T08:03:40.857Z,97605.81
2023-12-09T08:08:43.818Z,97609.81
2023-12-09T08:13:48.387Z,97613.88
2023-12-09T08:18:51.454Z,97606.50
2023-12-09T08:23:55.482Z,97604.88
2023-12-09T08:28:59.820Z,97610.97
2023-12-09T08:34:02.800Z,97616.59
2023-12-09T08:39:05.908Z,97613.06
2023-12-09T08:44:10.178Z,97615.81
2023-12-09T08:49:13.236Z,97627.59
2023-12-09T08:54:16.826Z,97625.78
2023-12-09T08:59:21.115Z,97628.75
2023-12-09T09:04:24.089Z,97636.50
2023-12-09T09:09:27.052Z,97633.19
2023-12-09T09:14:31.361Z,97630.97
2023-12-09T09:19:34.335Z,97627.41
2023-12-09T09:24:37.874Z,97602.00
2023-12-09T09:29:42.255Z,97610.25
2023-12-09T09:34:45.520Z,97611.22
2023-12-09T09:39:48.789Z,97610.00
2023-12-09T09:45:02.382Z,97608.47
2023-12-09T09:50:07.036Z,97598.03
2023-12-09T09:55:11.042Z,97595.63
2023-12-09T10:00:17.765Z,97580.63
2023-12-09T10:05:21.637Z,97571.47
2023-12-09T10:10:24.991Z,97573.91
2023-12-09T10:15:29.381Z,97565.53
2023-12-09T10:20:32.736Z,97560.38
2023-12-09T10:25:35.971Z,97536.75
2023-12-09T10:30:40.469Z,97541.09
2023-12-09T10:35:43.594Z,97526.22
2023-12-09T10:40:46.514Z,97519.47
2023-12-09T10:45:50.914Z,97506.78
2023-12-09T10:50:54.136Z,97500.00
2023-12-09T10:55:57.964Z,97504.03
2023-12-09T11:01:03.514Z,97490.81
2023-12-09T11:06:09.110Z,97492.09
2023-12-09T11:11:12.752Z,97486.94
2023-12-09T11:16:20.410Z,97477.44
2023-12-09T11:21:27.189Z,97478.44
2023-12-09T11:26:31.758Z,97473.56
2023-12-09T11:31:38.852Z,97462.63
2023-12-09T11:36:42.619Z,97460.66
2023-12-09T11:41:46.641Z,97451.44
2023-12-09T11:46:50.981Z,97449.16
2023-12-09T11:51:53.965Z,97435.00
2023-12-09T11:56:56.935Z,97420.13
2023-12-09T12:02:02.021Z,97413.78
2023-12-09T12:07:05.269Z,97418.75
2023-12-09T12:12:08.814Z,97408.59
2023-12-09T12:17:16.515Z,97407.72
2023-12-09T12:22:20.669Z,97397.41
2023-12-09T12:27:25.843Z,97409.19
2023-12-09T12:32:31.419Z,97401.19
2023-12-09T12:37:34.794Z,97410.03
2023-12-09T12:42:38.133Z,97408.84
2023-12-09T12:47:42.596Z,97405.75
2023-12-09T12:52:47.011Z,97406.13
2023-12-09T12:57:50.153Z,97395.75
2023-12-09T13:02:54.506Z,97400.56
2023-12-09T13:07:57.544Z,97409.88
2023-12-09T13:13:01.018Z,97409.97
2023-12-09T13:18:07.874Z,97397.50
2023-12-09T13:23:11.098Z,97398.63
2023-12-09T13:28:14.194Z,97390.81
2023-12-09T20:48:24.197Z,96919.69
2023-12-09T20:53:27.203Z,96924.13
2023-12-09T20:58:30.930Z,96900.34
2023-12-09T21:03:35.390Z,96867.88
2023-12-09T21:08:40.432Z,96867.88
2023-12-09T21:13:43.573Z,96859.56
2023-12-09T21:18:48.607Z,96863.28
2023-12-09T21:23:51.614Z,96833.63
2023-12-09T21:28:54.609Z,96854.41
2023-12-09T21:33:59.035Z,96844.56
2023-12-09T21:39:02.081Z,96863.44
2023-12-09T21:44:05.134Z,96813.91
2023-12-09T21:49:09.542Z,96812.41
2023-12-09T21:54:12.599Z,96796.06
2023-12-09T21:59:15.629Z,96777.38
2023-12-09T22:04:20.115Z,96778.91
2023-12-09T22:09:23.650Z,96768.22
2023-12-09T22:14:26.661Z,96755.69
2023-12-09T22:19:31.117Z,96743.09
2023-12-09T22:24:34.167Z,96719.75
2023-12-09T22:29:37.253Z,96726.94
2023-12-09T22:34:41.811Z,96771.97
2023-12-09T22:39:44.948Z,96739.19
2023-12-09T22:44:48.027Z,96741.53
2023-12-09T22:49:52.570Z,96746.09
2023-12-09T22:54:55.596Z,96746.91
2023-12-09T22:59:58.855Z,96704.94
2023-12-09T23:05:03.243Z,96700.38
2023-12-09T23:10:07.190Z,96692.03
2023-12-09T23:15:11.721Z,96693.22
2023-12-09T23:20:16.251Z,96681.41
2023-12-09T23:25:19.209Z,96674.56
2023-12-09T23:30:22.435Z,96674.56
2023-12-09T23:35:26.822Z,96650.91
2023-12-09T23:40:29.788Z,96643.31
2023-12-09T23:45:32.884Z,96648.22
2023-12-09T23:50:37.302Z,96637.09
2023-12-09T23:55:40.809Z,96620.69
